Time;durP1;ratioP1;P1;durP2;ratioP2;P2;SDS_P1;SDS_P2;PMS_P1;PMS_P2;Temp;Humidity;BMP_temperature;BMP_pressure;BME280_temperature;BME280_humidity;BME280_pressure;Samples;Min_cycle;Max_cycle;Signal;HPM_P1;HPM_P2
2022/04/13 00:01:20;;;;;;;;;;;15.90;99.50;;;;;;4301288;33;43160;-81
2022/04/13 00:03:47;;;;;;;;;;;15.90;99.50;;;;;;4288616;33;44224;-81
2022/04/13 00:06:15;;;;;;;;;;;15.90;99.70;;;;;;4300406;33;43860;-81
2022/04/13 00:08:44;;;;;;;;;;;15.90;99.60;;;;;;4300865;33;42825;-81
2022/04/13 00:11:11;;;;;;;;;;;15.90;99.60;;;;;;4301281;33;43871;-82
2022/04/13 00:13:38;;;;;;;;;;;15.90;99.40;;;;;;4287895;33;43862;-80
2022/04/13 00:16:05;;;;;;;;;;;15.90;99.10;;;;;;4301320;33;44200;-81
2022/04/13 00:18:32;;;;;;;;;;;15.90;99.30;;;;;;4299810;33;42601;-81
2022/04/13 00:20:59;;;;;;;;;;;15.90;99.10;;;;;;4301280;33;42659;-80
2022/04/13 00:23:26;;;;;;;;;;;15.80;99.10;;;;;;4288409;33;43890;-80
2022/04/13 00:25:53;;;;;;;;;;;15.80;99.50;;;;;;4301213;33;42818;-81
2022/04/13 00:28:20;;;;;;;;;;;15.80;99.50;;;;;;4300725;33;44693;-81
2022/04/13 00:30:47;;;;;;;;;;;15.80;99.70;;;;;;4301110;33;43482;-81
2022/04/13 00:33:15;;;;;;;;;;;15.70;99.40;;;;;;4287813;33;43020;-81
2022/04/13 00:35:42;;;;;;;;;;;15.70;99.50;;;;;;4287856;33;42255;-81
2022/04/13 00:38:09;;;;;;;;;;;15.70;99.70;;;;;;4301107;33;43775;-82
2022/04/13 00:40:39;;;;;;;;;;;15.70;99.70;;;;;;4300766;33;43834;-81
2022/04/13 00:43:07;;;;;;;;;;;15.70;99.70;;;;;;4302525;33;45266;-81
2022/04/13 00:45:34;;;;;;;;;;;15.70;99.70;;;;;;4290841;33;44233;-81
2022/04/13 00:48:02;;;;;;;;;;;15.60;99.60;;;;;;4303820;33;44566;-81
2022/04/13 00:50:29;;;;;;;;;;;15.60;99.80;;;;;;4290498;33;43870;-81
2022/04/13 00:52:58;;;;;;;;;;;15.60;99.90;;;;;;4290762;33;42811;-81
2022/04/13 00:55:27;;;;;;;;;;;15.60;99.90;;;;;;4302996;33;43202;-81
2022/04/13 00:57:57;;;;;;;;;;;15.60;99.90;;;;;;4303390;33;44102;-81
2022/04/13 01:00:24;;;;;;;;;;;15.60;99.90;;;;;;4303634;33;42945;-81
2022/04/13 01:02:52;;;;;;;;;;;15.60;99.90;;;;;;4303080;33;43446;-81
2022/04/13 01:05:20;;;;;;;;;;;15.60;99.90;;;;;;4303769;33;43535;-81
2022/04/13 01:07:47;;;;;;;;;;;15.60;99.90;;;;;;4303507;33;44911;-81
2022/04/13 01:10:14;;;;;;;;;;;15.60;99.90;;;;;;4290575;33;43299;-81
2022/04/13 01:12:41;;;;;;;;;;;15.60;99.90;;;;;;4303473;33;43496;-81
2022/04/13 01:15:08;;;;;;;;;;;15.60;99.90;;;;;;4290456;33;43482;-81
2022/04/13 01:17:38;;;;;;;;;;;15.60;99.90;;;;;;4303060;33;44200;-81
2022/04/13 01:20:05;;;;;;;;;;;15.60;99.90;;;;;;4303035;33;43318;-81
2022/04/13 01:22:32;;;;;;;;;;;15.60;99.90;;;;;;4303058;33;43446;-81
2022/04/13 01:24:59;;;;;;;;;;;15.60;99.90;;;;;;4302000;33;42727;-81
2022/04/13 01:27:27;;;;;;;;;;;15.60;99.90;;;;;;4303335;33;43160;-81
2022/04/13 01:29:54;;;;;;;;;;;15.60;99.90;;;;;;4303247;33;43952;-81
2022/04/13 01:32:22;;;;;;;;;;;15.60;99.90;;;;;;4290372;33;43375;-81
2022/04/13 01:34:52;;;;;;;;;;;15.60;99.90;;;;;;4290203;33;43274;-81
2022/04/13 01:37:19;;;;;;;;;;;15.60;99.90;;;;;;4303092;33;43414;-81
2022/04/13 01:39:47;;;;;;;;;;;15.60;99.90;;;;;;4301711;33;42872;-81
2022/04/13 01:42:14;;;;;;;;;;;15.50;99.90;;;;;;4301707;33;43059;-81
2022/04/13 01:44:44;;;;;;;;;;;15.50;99.90;;;;;;4302720;33;43599;-81
2022/04/13 01:47:11;;;;;;;;;;;15.50;99.90;;;;;;4303074;33;44318;-82
2022/04/13 01:49:38;;;;;;;;;;;15.50;99.90;;;;;;4302715;33;43571;-81
2022/04/13 01:52:06;;;;;;;;;;;15.50;99.90;;;;;;4302590;33;44388;-80
2022/04/13 01:54:34;;;;;;;;;;;15.50;99.90;;;;;;4302267;33;42892;-81
2022/04/13 01:57:01;;;;;;;;;;;15.50;99.90;;;;;;4301948;33;43028;-81
2022/04/13 01:59:28;;;;;;;;;;;15.50;99.90;;;;;;4302841;33;42960;-81
2022/04/13 02:01:55;;;;;;;;;;;15.50;99.90;;;;;;4289587;33;44217;-82
2022/04/13 02:04:25;;;;;;;;;;;15.50;99.90;;;;;;4289615;33;43566;-81
2022/04/13 02:06:53;;;;;;;;;;;15.40;99.90;;;;;;4289468;33;44799;-82
2022/04/13 02:09:20;;;;;;;;;;;15.40;99.90;;;;;;4289342;33;42740;-82
2022/04/13 02:11:47;;;;;;;;;;;15.40;99.90;;;;;;4289874;33;44279;-81
2022/04/13 02:14:14;;;;;;;;;;;15.40;99.90;;;;;;4289286;33;44232;-82
2022/04/13 02:16:41;;;;;;;;;;;15.40;99.90;;;;;;4289674;33;43888;-81
2022/04/13 02:19:11;;;;;;;;;;;15.40;99.90;;;;;;4289228;33;43258;-82
2022/04/13 02:21:39;;;;;;;;;;;15.40;99.90;;;;;;4302384;33;42978;-82
2022/04/13 02:24:07;;;;;;;;;;;15.40;99.90;;;;;;4289398;33;42336;-82
2022/04/13 02:26:34;;;;;;;;;;;15.30;99.90;;;;;;4302528;33;44313;-82
2022/04/13 02:29:01;;;;;;;;;;;15.30;99.90;;;;;;4289103;33;42361;-83
2022/04/13 02:31:28;;;;;;;;;;;15.30;99.90;;;;;;4289190;33;43511;-83
2022/04/13 02:33:56;;;;;;;;;;;15.40;99.90;;;;;;4289114;33;44191;-83
2022/04/13 02:36:23;;;;;;;;;;;15.30;99.90;;;;;;4302272;33;42284;-82
2022/04/13 02:38:50;;;;;;;;;;;15.40;99.90;;;;;;4301978;33;43434;-83
2022/04/13 02:41:17;;;;;;;;;;;15.40;99.90;;;;;;4302386;33;43251;-83
2022/04/13 02:43:44;;;;;;;;;;;15.30;99.90;;;;;;4302419;33;42560;-83
2022/04/13 02:46:11;;;;;;;;;;;15.40;99.90;;;;;;4301925;33;43452;-83
2022/04/13 02:48:39;;;;;;;;;;;15.30;99.90;;;;;;4288728;33;43307;-83
2022/04/13 02:51:06;;;;;;;;;;;15.30;99.90;;;;;;4289186;33;43267;-83
2022/04/13 02:53:34;;;;;;;;;;;15.30;99.90;;;;;;4302304;33;43422;-83
2022/04/13 02:56:01;;;;;;;;;;;15.30;99.90;;;;;;4288872;33;43789;-84
2022/04/13 02:58:28;;;;;;;;;;;15.30;99.90;;;;;;4289032;33;45087;-83
2022/04/13 03:00:55;;;;;;;;;;;15.30;99.90;;;;;;4301678;33;42739;-83
2022/04/13 03:03:22;;;;;;;;;;;15.20;99.90;;;;;;4288415;33;44705;-83
2022/04/13 03:05:49;;;;;;;;;;;15.20;99.90;;;;;;4301541;33;42682;-83
2022/04/13 03:08:17;;;;;;;;;;;15.20;99.90;;;;;;4301865;33;43330;-83
2022/04/13 03:10:44;;;;;;;;;;;15.20;99.90;;;;;;4301525;33;43284;-83
2022/04/13 03:13:11;;;;;;;;;;;15.20;99.90;;;;;;4301477;33;43392;-83
2022/04/13 03:15:39;;;;;;;;;;;15.20;99.90;;;;;;4301483;33;42725;-83
2022/04/13 03:18:06;;;;;;;;;;;15.20;99.90;;;;;;4288680;33;42813;-83
2022/04/13 03:20:33;;;;;;;;;;;15.10;99.90;;;;;;4288831;33;43747;-83
2022/04/13 03:23:00;;;;;;;;;;;15.10;99.90;;;;;;4301434;33;43319;-83
2022/04/13 03:25:28;;;;;;;;;;;15.10;99.90;;;;;;4301759;33;43243;-83
2022/04/13 03:27:55;;;;;;;;;;;15.10;99.90;;;;;;4301185;33;42788;-83
2022/04/13 03:30:23;;;;;;;;;;;15.10;99.90;;;;;;4288379;33;44311;-83
2022/04/13 03:32:51;;;;;;;;;;;15.10;99.90;;;;;;4288186;33;44120;-83
2022/04/13 03:35:18;;;;;;;;;;;15.00;99.90;;;;;;4301202;33;43762;-82
2022/04/13 03:37:45;;;;;;;;;;;15.00;99.90;;;;;;4288197;33;43829;-83
2022/04/13 03:40:12;;;;;;;;;;;15.00;99.90;;;;;;4300985;33;45730;-83
2022/04/13 03:42:40;;;;;;;;;;;15.00;99.90;;;;;;4301361;33;43946;-83
2022/04/13 03:45:08;;;;;;;;;;;14.90;99.90;;;;;;4288705;33;44113;-83
2022/04/13 03:47:35;;;;;;;;;;;14.90;99.90;;;;;;4288211;33;42493;-82
2022/04/13 03:50:02;;;;;;;;;;;14.90;99.90;;;;;;4288000;33;42725;-82
2022/04/13 03:52:31;;;;;;;;;;;14.90;99.90;;;;;;4301380;33;44062;-83
2022/04/13 03:54:58;;;;;;;;;;;14.90;99.90;;;;;;4299922;33;44238;-83
2022/04/13 03:57:25;;;;;;;;;;;14.90;99.90;;;;;;4301334;33;44075;-83
2022/04/13 03:59:52;;;;;;;;;;;14.90;99.90;;;;;;4300985;33;44065;-83
2022/04/13 04:02:19;;;;;;;;;;;14.90;99.90;;;;;;4300857;33;42919;-83
2022/04/13 04:04:46;;;;;;;;;;;14.80;99.90;;;;;;4301260;33;43695;-83
2022/04/13 04:07:13;;;;;;;;;;;14.90;99.90;;;;;;4300147;33;43037;-83
2022/04/13 04:09:40;;;;;;;;;;;14.90;99.90;;;;;;4288428;33;43215;-83
2022/04/13 04:12:07;;;;;;;;;;;14.80;99.90;;;;;;4287886;33;44227;-83
2022/04/13 04:14:34;;;;;;;;;;;14.80;99.90;;;;;;4301100;33;42666;-82
2022/04/13 04:17:02;;;;;;;;;;;14.80;99.90;;;;;;4289372;33;43893;-82
2022/04/13 04:19:29;;;;;;;;;;;14.80;99.90;;;;;;4291221;33;43650;-82
2022/04/13 04:21:56;;;;;;;;;;;14.80;99.90;;;;;;4304233;33;43753;-83
2022/04/13 04:24:23;;;;;;;;;;;14.80;99.90;;;;;;4290881;33;43490;-82
2022/04/13 04:26:50;;;;;;;;;;;14.80;99.90;;;;;;4291255;33;43897;-83
2022/04/13 04:29:24;;;;;;;;;;;14.80;99.90;;;;;;4303757;33;42800;-83
2022/04/13 04:31:53;;;;;;;;;;;14.80;99.90;;;;;;4304051;33;45869;-83
2022/04/13 04:34:21;;;;;;;;;;;14.70;99.90;;;;;;4304114;33;42553;-82
2022/04/13 04:36:49;;;;;;;;;;;14.70;99.90;;;;;;4290726;33;42728;-83
2022/04/13 04:39:16;;;;;;;;;;;14.70;99.90;;;;;;4290769;33;44193;-83
2022/04/13 04:41:43;;;;;;;;;;;14.70;99.90;;;;;;4290460;33;45255;-83
2022/04/13 04:44:11;;;;;;;;;;;14.80;99.90;;;;;;4290426;33;43311;-83
2022/04/13 04:46:38;;;;;;;;;;;14.70;99.90;;;;;;4290796;33;43089;-82
2022/04/13 04:49:05;;;;;;;;;;;14.70;99.90;;;;;;4303325;33;44614;-83
2022/04/13 04:51:32;;;;;;;;;;;14.70;99.90;;;;;;4290420;33;44736;-83
2022/04/13 04:54:00;;;;;;;;;;;14.70;99.90;;;;;;4291073;33;43896;-84
2022/04/13 04:56:27;;;;;;;;;;;14.70;99.90;;;;;;4290706;33;44143;-83
2022/04/13 04:58:54;;;;;;;;;;;14.60;99.90;;;;;;4303777;33;43972;-83
2022/04/13 05:01:26;;;;;;;;;;;14.60;99.90;;;;;;4304379;33;20061;-83
2022/04/13 05:03:53;;;;;;;;;;;14.60;99.90;;;;;;4290788;33;43020;-83
2022/04/13 05:06:21;;;;;;;;;;;14.60;99.90;;;;;;4303358;33;43084;-83
2022/04/13 05:08:49;;;;;;;;;;;14.60;99.90;;;;;;4290629;33;44174;-82
2022/04/13 05:11:16;;;;;;;;;;;14.60;99.90;;;;;;4303378;33;44295;-83
2022/04/13 05:13:47;;;;;;;;;;;14.60;99.90;;;;;;4303546;33;44192;-82
2022/04/13 05:16:14;;;;;;;;;;;14.60;99.90;;;;;;4303098;33;42545;-83
2022/04/13 05:18:42;;;;;;;;;;;14.60;99.90;;;;;;4290287;33;44236;-83
2022/04/13 05:21:09;;;;;;;;;;;14.60;99.90;;;;;;4303303;33;44188;-83
2022/04/13 05:23:37;;;;;;;;;;;14.60;99.90;;;;;;4303470;33;43304;-83
2022/04/13 05:26:04;;;;;;;;;;;14.60;99.90;;;;;;4303165;33;45314;-83
2022/04/13 05:28:31;;;;;;;;;;;14.60;99.90;;;;;;4301997;33;43325;-82
2022/04/13 05:30:58;;;;;;;;;;;14.60;99.90;;;;;;4290220;33;44121;-83
2022/04/13 05:33:25;;;;;;;;;;;14.60;99.90;;;;;;4302939;33;42800;-83
2022/04/13 05:35:52;;;;;;;;;;;14.60;99.90;;;;;;4289871;33;42944;-82
2022/04/13 05:38:20;;;;;;;;;;;14.60;99.90;;;;;;4290256;33;43851;-82
2022/04/13 05:40:47;;;;;;;;;;;14.60;99.90;;;;;;4289875;33;43474;-83
2022/04/13 05:43:14;;;;;;;;;;;14.50;99.90;;;;;;4303195;33;42989;-83
2022/04/13 05:45:41;;;;;;;;;;;14.50;99.90;;;;;;4290106;33;42301;-82
2022/04/13 05:48:08;;;;;;;;;;;14.50;99.90;;;;;;4302662;33;43729;-82
2022/04/13 05:50:35;;;;;;;;;;;14.50;99.90;;;;;;4289721;33;43118;-82
2022/04/13 05:53:02;;;;;;;;;;;14.50;99.90;;;;;;4289829;33;43448;-82
2022/04/13 05:55:30;;;;;;;;;;;14.50;99.90;;;;;;4302881;33;42963;-82
2022/04/13 05:57:57;;;;;;;;;;;14.50;99.90;;;;;;4302854;33;44051;-82
2022/04/13 06:00:24;;;;;;;;;;;14.50;99.90;;;;;;4289895;33;42874;-82
2022/04/13 06:02:52;;;;;;;;;;;14.50;99.90;;;;;;4301390;33;43858;-82
2022/04/13 06:05:21;;;;;;;;;;;14.50;99.90;;;;;;4302434;33;44255;-82
2022/04/13 06:07:48;;;;;;;;;;;14.50;99.90;;;;;;4302518;33;43080;-81
2022/04/13 06:10:17;;;;;;;;;;;14.40;99.90;;;;;;4289771;33;44220;-81
2022/04/13 06:12:44;;;;;;;;;;;14.40;99.90;;;;;;4289684;33;43472;-82
2022/04/13 06:15:12;;;;;;;;;;;14.40;99.90;;;;;;4302404;33;42851;-81
2022/04/13 06:17:39;;;;;;;;;;;14.40;99.90;;;;;;4302730;33;43986;-81
2022/04/13 06:20:07;;;;;;;;;;;14.40;99.90;;;;;;4289380;33;43878;-81
2022/04/13 06:22:38;;;;;;;;;;;14.50;99.90;;;;;;4302524;33;44161;-81
2022/04/13 06:25:05;;;;;;;;;;;14.50;99.90;;;;;;4302581;33;45885;-81
2022/04/13 06:27:33;;;;;;;;;;;14.50;99.90;;;;;;4302564;33;42672;-80
2022/04/13 06:30:00;;;;;;;;;;;14.40;99.90;;;;;;4289083;33;43307;-81
2022/04/13 06:32:31;;;;;;;;;;;14.40;99.90;;;;;;4302172;33;43460;-80
2022/04/13 06:34:58;;;;;;;;;;;14.40;99.90;;;;;;4302344;33;43245;-80
2022/04/13 06:37:26;;;;;;;;;;;14.50;99.90;;;;;;4289270;33;42295;-80
2022/04/13 06:39:53;;;;;;;;;;;14.40;99.90;;;;;;4301716;33;44115;-81
2022/04/13 06:42:22;;;;;;;;;;;14.50;99.90;;;;;;4302079;33;43816;-80
2022/04/13 06:44:50;;;;;;;;;;;14.50;99.90;;;;;;4302082;33;42837;-80
2022/04/13 06:47:18;;;;;;;;;;;14.50;99.90;;;;;;4301412;33;43842;-80
2022/04/13 06:49:45;;;;;;;;;;;14.50;99.90;;;;;;4301825;33;43826;-80
2022/04/13 06:52:13;;;;;;;;;;;14.50;99.90;;;;;;4302162;33;43552;-80
2022/04/13 06:54:40;;;;;;;;;;;14.50;99.90;;;;;;4302232;33;44040;-80
2022/04/13 06:57:07;;;;;;;;;;;14.50;99.90;;;;;;4301800;33;43975;-80
2022/04/13 06:59:35;;;;;;;;;;;14.60;99.90;;;;;;4302034;33;45217;-80
2022/04/13 07:02:02;;;;;;;;;;;14.60;99.90;;;;;;4301559;33;43252;-80
2022/04/13 07:04:30;;;;;;;;;;;14.60;99.90;;;;;;4302173;33;43829;-80
2022/04/13 07:06:57;;;;;;;;;;;14.60;99.90;;;;;;4288997;33;42564;-80
2022/04/13 07:09:24;;;;;;;;;;;14.60;99.90;;;;;;4301919;33;43611;-80
2022/04/13 07:11:51;;;;;;;;;;;14.60;99.90;;;;;;4301976;33;43487;-80
2022/04/13 07:14:18;;;;;;;;;;;14.70;99.90;;;;;;4288960;33;43893;-80
2022/04/13 07:16:45;;;;;;;;;;;14.70;99.90;;;;;;4288772;33;43857;-80
2022/04/13 07:19:12;;;;;;;;;;;14.70;99.90;;;;;;4302030;33;44189;-80
2022/04/13 07:21:39;;;;;;;;;;;14.70;99.90;;;;;;4288812;33;43498;-80
2022/04/13 07:24:27;;;;;;;;;;;14.70;99.90;;;;;;4291086;33;45075;-80
2022/04/13 07:26:54;;;;;;;;;;;14.70;99.90;;;;;;4288287;33;43955;-80
2022/04/13 07:29:21;;;;;;;;;;;14.70;99.90;;;;;;4301225;33;43267;-80
2022/04/13 07:31:48;;;;;;;;;;;14.70;99.90;;;;;;4301778;33;43935;-80
2022/04/13 07:34:16;;;;;;;;;;;14.80;99.90;;;;;;4301183;33;44246;-80
2022/04/13 07:36:43;;;;;;;;;;;14.80;99.90;;;;;;4301429;33;43014;-80
2022/04/13 07:39:10;;;;;;;;;;;14.80;99.90;;;;;;4300228;33;43347;-80
2022/04/13 07:41:37;;;;;;;;;;;14.80;99.90;;;;;;4301347;33;44252;-80
2022/04/13 07:44:05;;;;;;;;;;;14.80;99.90;;;;;;4288654;33;46068;-80
2022/04/13 07:46:32;;;;;;;;;;;14.80;99.90;;;;;;4301448;33;42690;-81
2022/04/13 07:48:59;;;;;;;;;;;14.80;99.90;;;;;;4301574;33;43915;-80
2022/04/13 07:51:26;;;;;;;;;;;14.80;99.90;;;;;;4300642;33;42675;-80
2022/04/13 07:53:52;;;;;;;;;;;14.80;99.90;;;;;;4288542;33;43188;-80
2022/04/13 07:56:19;;;;;;;;;;;14.80;99.90;;;;;;4288031;33;43889;-80
2022/04/13 07:58:46;;;;;;;;;;;14.80;99.90;;;;;;4300960;33;45796;-80
2022/04/13 08:01:14;;;;;;;;;;;14.80;99.90;;;;;;4300287;33;43417;-80
2022/04/13 08:03:42;;;;;;;;;;;14.80;99.90;;;;;;4301455;33;42878;-80
2022/04/13 08:06:11;;;;;;;;;;;14.80;99.90;;;;;;4301123;33;44240;-80
2022/04/13 08:08:39;;;;;;;;;;;14.80;99.90;;;;;;4301189;33;44038;-81
2022/04/13 08:11:06;;;;;;;;;;;14.80;99.90;;;;;;4300933;33;44029;-80
2022/04/13 08:13:33;;;;;;;;;;;14.80;99.90;;;;;;4301249;33;44038;-80
2022/04/13 08:16:15;;;;;;;;;;;14.80;99.90;;;;;;4289559;33;44299;-80
2022/04/13 08:18:44;;;;;;;;;;;14.80;99.90;;;;;;4300970;33;43195;-80
2022/04/13 08:21:11;;;;;;;;;;;14.80;99.90;;;;;;4287942;33;43058;-80
2022/04/13 08:23:38;;;;;;;;;;;14.90;99.90;;;;;;4301242;33;43933;-80
2022/04/13 08:26:05;;;;;;;;;;;14.80;99.90;;;;;;4288132;33;44130;-80
2022/04/13 08:28:32;;;;;;;;;;;14.80;99.90;;;;;;4301170;33;43081;-81
2022/04/13 08:31:02;;;;;;;;;;;14.80;99.90;;;;;;4300767;33;43973;-80
2022/04/13 08:33:29;;;;;;;;;;;14.90;99.90;;;;;;4287867;33;42726;-81
2022/04/13 08:35:56;;;;;;;;;;;14.90;99.90;;;;;;4288091;33;43478;-81
2022/04/13 08:38:23;;;;;;;;;;;14.90;99.90;;;;;;4287807;33;45120;-80
2022/04/13 08:41:05;;;;;;;;;;;14.90;99.90;;;;;;4300007;33;43038;-80
2022/04/13 08:43:34;;;;;;;;;;;14.90;99.90;;;;;;4301131;33;45914;-81
2022/04/13 08:46:04;;;;;;;;;;;14.90;99.90;;;;;;4300283;33;44237;-81
2022/04/13 08:48:32;;;;;;;;;;;14.90;99.90;;;;;;4300853;33;45804;-81
2022/04/13 08:51:00;;;;;;;;;;;14.90;99.90;;;;;;4300516;33;45735;-82
2022/04/13 08:53:29;;;;;;;;;;;14.90;99.90;;;;;;4300677;33;42568;-82
2022/04/13 08:55:58;;;;;;;;;;;15.00;99.90;;;;;;4287996;33;43274;-82
2022/04/13 08:58:40;;;;;;;;;;;14.90;99.90;;;;;;4300932;33;43787;-83
2022/04/13 09:01:15;;;;;;;;;;;14.90;99.90;;;;;;4288144;33;45256;-81
2022/04/13 09:03:48;;;;;;;;;;;14.90;99.90;;;;;;4303576;33;20017;-82
2022/04/13 09:06:15;;;;;;;;;;;15.00;99.90;;;;;;4290068;33;44257;-82
2022/04/13 09:08:51;;;;;;;;;;;14.90;99.90;;;;;;4303200;33;44215;-82
2022/04/13 09:11:22;;;;;;;;;;;15.00;99.90;;;;;;4302347;33;43338;-82
2022/04/13 09:13:50;;;;;;;;;;;15.00;99.90;;;;;;4303247;33;43762;-82
2022/04/13 09:16:17;;;;;;;;;;;15.00;99.90;;;;;;4290118;33;43111;-82
2022/04/13 09:18:45;;;;;;;;;;;15.00;99.90;;;;;;4303084;33;43478;-83
2022/04/13 09:21:13;;;;;;;;;;;15.00;99.90;;;;;;4290067;33;42978;-83
2022/04/13 09:23:40;;;;;;;;;;;15.00;99.90;;;;;;4290178;33;45438;-83
2022/04/13 09:26:07;;;;;;;;;;;15.00;99.90;;;;;;4302925;33;45899;-83
2022/04/13 09:28:37;;;;;;;;;;;15.00;99.90;;;;;;4290340;33;44333;-83
2022/04/13 09:31:04;;;;;;;;;;;15.00;99.90;;;;;;4290347;33;43585;-82
2022/04/13 09:33:31;;;;;;;;;;;15.00;99.90;;;;;;4290231;33;45115;-81
2022/04/13 09:35:58;;;;;;;;;;;15.10;99.90;;;;;;4301726;33;43038;-81
2022/04/13 09:38:26;;;;;;;;;;;15.00;99.90;;;;;;4302928;33;44127;-81
2022/04/13 09:40:54;;;;;;;;;;;15.10;99.90;;;;;;4302858;33;44804;-81
2022/04/13 09:43:22;;;;;;;;;;;15.10;99.90;;;;;;4303052;33;43939;-81
2022/04/13 09:45:51;;;;;;;;;;;15.10;99.90;;;;;;4290354;33;43470;-81
2022/04/13 09:48:19;;;;;;;;;;;15.10;99.90;;;;;;4302770;33;42716;-80
2022/04/13 09:50:47;;;;;;;;;;;15.10;99.90;;;;;;4302571;33;43882;-80
2022/04/13 09:53:15;;;;;;;;;;;15.10;99.90;;;;;;4302575;33;43322;-80
2022/04/13 09:55:43;;;;;;;;;;;15.10;99.90;;;;;;4302995;33;43453;-80
2022/04/13 09:58:10;;;;;;;;;;;15.10;99.90;;;;;;4302543;33;43319;-80
2022/04/13 10:00:38;;;;;;;;;;;15.10;99.90;;;;;;4289472;33;44106;-80
2022/04/13 10:03:10;;;;;;;;;;;15.20;99.90;;;;;;4289435;33;42982;-80
2022/04/13 10:05:38;;;;;;;;;;;15.20;99.90;;;;;;4289995;33;44483;-80
2022/04/13 10:08:06;;;;;;;;;;;15.20;99.90;;;;;;4302538;33;44267;-80
2022/04/13 10:10:33;;;;;;;;;;;15.20;99.90;;;;;;4302730;33;44198;-80
2022/04/13 10:13:01;;;;;;;;;;;15.20;99.90;;;;;;4302856;33;43191;-80
2022/04/13 10:15:28;;;;;;;;;;;15.30;99.90;;;;;;4288861;33;44165;-79
2022/04/13 10:18:04;;;;;;;;;;;15.30;99.90;;;;;;4290584;33;43536;-80
2022/04/13 10:20:44;;;;;;;;;;;15.30;99.90;;;;;;4302336;33;43863;-80
2022/04/13 10:23:12;;;;;;;;;;;15.30;99.90;;;;;;4302641;33;44224;-80
2022/04/13 10:25:39;;;;;;;;;;;15.30;99.90;;;;;;4277598;33;44210;-80
2022/04/13 10:28:06;;;;;;;;;;;15.30;99.90;;;;;;4302797;33;43236;-80
2022/04/13 10:30:34;;;;;;;;;;;15.30;99.90;;;;;;4302149;33;43881;-80
2022/04/13 10:33:11;;;;;;;;;;;15.30;99.90;;;;;;4302131;33;43769;-80
2022/04/13 10:35:42;;;;;;;;;;;15.30;99.90;;;;;;4303326;33;20445;-80
2022/04/13 10:38:09;;;;;;;;;;;15.30;99.90;;;;;;4301244;33;43062;-80
2022/04/13 10:40:40;;;;;;;;;;;15.30;99.90;;;;;;4302002;33;43866;-80
2022/04/13 10:43:11;;;;;;;;;;;15.40;99.90;;;;;;4302586;33;43477;-80
2022/04/13 10:45:45;;;;;;;;;;;15.40;99.90;;;;;;4302038;33;43794;-80
2022/04/13 10:48:17;;;;;;;;;;;15.40;99.90;;;;;;4288939;33;44048;-80
2022/04/13 10:50:54;;;;;;;;;;;15.40;99.90;;;;;;4289134;33;44381;-80
2022/04/13 10:53:25;;;;;;;;;;;15.40;99.90;;;;;;4288815;33;43480;-80
2022/04/13 10:56:00;;;;;;;;;;;15.40;99.90;;;;;;4302372;33;45357;-80
2022/04/13 10:58:33;;;;;;;;;;;15.40;99.90;;;;;;4302309;33;44146;-80
2022/04/13 11:01:04;;;;;;;;;;;15.40;99.90;;;;;;4289252;33;43198;-80
2022/04/13 11:03:37;;;;;;;;;;;15.40;99.90;;;;;;4302035;33;43268;-80
2022/04/13 11:06:06;;;;;;;;;;;15.50;99.90;;;;;;4289473;33;20006;-80
2022/04/13 11:08:33;;;;;;;;;;;15.50;99.90;;;;;;4301585;33;42627;-80
2022/04/13 11:11:00;;;;;;;;;;;15.50;99.90;;;;;;4301677;33;44550;-80
2022/04/13 11:13:31;;;;;;;;;;;15.50;99.90;;;;;;4288897;33;43925;-80
2022/04/13 11:16:12;;;;;;;;;;;15.50;99.90;;;;;;4301487;33;43477;-80
2022/04/13 11:18:40;;;;;;;;;;;15.50;99.90;;;;;;4289237;33;43871;-80
2022/04/13 11:21:10;;;;;;;;;;;15.50;99.90;;;;;;4301905;33;45020;-80
2022/04/13 11:23:54;;;;;;;;;;;15.50;99.90;;;;;;4301794;33;45456;-80
2022/04/13 11:26:26;;;;;;;;;;;15.50;99.90;;;;;;4288127;33;44211;-80
2022/04/13 11:29:12;;;;;;;;;;;15.50;99.90;;;;;;4288422;33;43300;-80
2022/04/13 11:31:58;;;;;;;;;;;15.50;99.90;;;;;;4301700;33;44203;-80
2022/04/13 11:34:28;;;;;;;;;;;15.60;99.90;;;;;;4288680;33;45803;-81
2022/04/13 11:36:59;;;;;;;;;;;15.60;99.90;;;;;;4288931;33;20013;-80
2022/04/13 11:39:45;;;;;;;;;;;15.60;99.90;;;;;;4301712;33;44200;-80
2022/04/13 11:42:16;;;;;;;;;;;15.60;99.90;;;;;;4301511;33;45061;-80
2022/04/13 11:44:50;;;;;;;;;;;15.60;99.90;;;;;;4288513;33;44261;-80
2022/04/13 11:47:18;;;;;;;;;;;15.60;99.90;;;;;;4301107;33;42570;-80
2022/04/13 11:50:03;;;;;;;;;;;15.60;99.90;;;;;;4301298;33;42849;-80
2022/04/13 11:52:42;;;;;;;;;;;15.60;99.90;;;;;;4301972;33;43206;-80
2022/04/13 11:55:30;;;;;;;;;;;15.60;99.90;;;;;;4301616;33;44192;-80
2022/04/13 11:57:57;;;;;;;;;;;15.60;99.90;;;;;;4301591;33;43260;-80
2022/04/13 12:00:42;;;;;;;;;;;15.70;99.90;;;;;;4301247;33;44509;-80
2022/04/13 12:03:14;;;;;;;;;;;15.70;99.90;;;;;;4287833;33;44072;-80
2022/04/13 12:05:42;;;;;;;;;;;15.70;99.90;;;;;;4300318;33;44539;-81
2022/04/13 12:08:11;;;;;;;;;;;15.70;99.90;;;;;;4301933;33;20054;-81
2022/04/13 12:10:39;;;;;;;;;;;15.70;99.90;;;;;;4300998;33;43729;-81
2022/04/13 12:13:11;;;;;;;;;;;15.70;99.90;;;;;;4288818;33;44191;-81
2022/04/13 12:15:44;;;;;;;;;;;15.70;99.90;;;;;;4287917;33;44098;-81
2022/04/13 12:18:12;;;;;;;;;;;15.80;99.90;;;;;;4288215;33;44560;-80
2022/04/13 12:20:39;;;;;;;;;;;15.70;99.90;;;;;;4288280;33;42969;-82
2022/04/13 12:23:20;;;;;;;;;;;15.80;99.90;;;;;;4288288;33;42754;-81
2022/04/13 12:25:49;;;;;;;;;;;15.80;99.90;;;;;;4288341;33;45545;-81
2022/04/13 12:28:16;;;;;;;;;;;15.80;99.90;;;;;;4299972;33;45509;-81
2022/04/13 12:30:43;;;;;;;;;;;15.80;99.90;;;;;;4288135;33;42898;-80
2022/04/13 12:33:23;;;;;;;;;;;15.80;99.90;;;;;;4300672;33;44798;-80
2022/04/13 12:36:14;;;;;;;;;;;15.80;99.90;;;;;;4300856;33;42494;-80
2022/04/13 12:38:42;;;;;;;;;;;15.80;99.90;;;;;;4304195;33;19998;-80
2022/04/13 12:41:09;;;;;;;;;;;15.90;99.90;;;;;;4303537;33;44916;-80
2022/04/13 12:43:38;;;;;;;;;;;15.90;99.90;;;;;;4303978;33;44921;-81
2022/04/13 12:46:12;;;;;;;;;;;15.90;99.90;;;;;;4303711;33;43242;-81
2022/04/13 12:48:40;;;;;;;;;;;15.90;99.90;;;;;;4303595;33;44080;-80
2022/04/13 12:51:07;;;;;;;;;;;15.90;99.90;;;;;;4290377;33;44172;-81
2022/04/13 12:53:55;;;;;;;;;;;15.90;99.90;;;;;;4303406;33;44102;-80
2022/04/13 12:56:24;;;;;;;;;;;15.90;99.90;;;;;;4290792;33;43282;-81
2022/04/13 12:58:51;;;;;;;;;;;15.90;99.90;;;;;;4303926;33;43899;-81
2022/04/13 13:01:31;;;;;;;;;;;15.90;99.90;;;;;;4278545;33;42800;-81
2022/04/13 13:04:09;;;;;;;;;;;16.00;99.90;;;;;;4303746;33;44495;-81
2022/04/13 13:06:37;;;;;;;;;;;16.00;99.90;;;;;;4303853;33;43210;-81
2022/04/13 13:09:04;;;;;;;;;;;15.90;99.90;;;;;;4291705;33;20356;-81
2022/04/13 13:11:33;;;;;;;;;;;16.00;99.90;;;;;;4303146;33;44287;-81
2022/04/13 13:14:04;;;;;;;;;;;16.00;99.90;;;;;;4303139;33;44217;-81
2022/04/13 13:16:32;;;;;;;;;;;16.00;99.90;;;;;;4302833;33;43124;-81
2022/04/13 13:19:29;;;;;;;;;;;16.00;99.90;;;;;;4303617;33;43308;-81
2022/04/13 13:22:11;;;;;;;;;;;16.00;99.90;;;;;;4289356;33;42715;-80
2022/04/13 13:24:44;;;;;;;;;;;16.00;99.90;;;;;;4303493;33;44453;-80
2022/04/13 13:27:12;;;;;;;;;;;16.00;99.90;;;;;;4303304;33;43313;-81
2022/04/13 13:29:43;;;;;;;;;;;16.00;99.90;;;;;;4290465;33;43891;-80
2022/04/13 13:32:11;;;;;;;;;;;16.00;99.90;;;;;;4303037;33;44323;-80
2022/04/13 13:34:38;;;;;;;;;;;16.10;99.90;;;;;;4302921;33;43276;-80
2022/04/13 13:37:06;;;;;;;;;;;16.00;99.90;;;;;;4289883;33;43782;-80
2022/04/13 13:39:33;;;;;;;;;;;16.10;99.90;;;;;;4303752;33;20006;-80
2022/04/13 13:42:09;;;;;;;;;;;16.10;99.90;;;;;;4289821;33;44221;-80
2022/04/13 13:44:36;;;;;;;;;;;16.10;99.90;;;;;;4303168;33;44206;-80
2022/04/13 13:47:03;;;;;;;;;;;16.10;99.90;;;;;;4290472;33;39908;-81
2022/04/13 13:49:30;;;;;;;;;;;16.20;99.90;;;;;;4288964;33;45184;-80
2022/04/13 13:51:57;;;;;;;;;;;16.10;99.90;;;;;;4301665;33;45096;-81
2022/04/13 13:54:25;;;;;;;;;;;16.20;99.90;;;;;;4290022;33;43047;-80
2022/04/13 13:56:53;;;;;;;;;;;16.20;99.90;;;;;;4290109;33;44239;-80
2022/04/13 13:59:20;;;;;;;;;;;16.20;99.90;;;;;;4289616;33;43683;-80
2022/04/13 14:01:47;;;;;;;;;;;16.20;99.90;;;;;;4287230;33;44036;-80
2022/04/13 14:04:15;;;;;;;;;;;16.30;99.90;;;;;;4288811;33;43362;-80
2022/04/13 14:06:42;;;;;;;;;;;16.20;99.90;;;;;;4286964;33;44172;-80
2022/04/13 14:09:11;;;;;;;;;;;16.30;99.90;;;;;;4288344;33;43446;-80
2022/04/13 14:11:38;;;;;;;;;;;16.30;99.90;;;;;;4288299;33;44828;-80
2022/04/13 14:14:05;;;;;;;;;;;16.30;99.90;;;;;;4287083;33;42943;-80
2022/04/13 14:16:32;;;;;;;;;;;16.30;99.90;;;;;;4288179;33;43664;-80
2022/04/13 14:18:59;;;;;;;;;;;16.40;99.90;;;;;;4287324;33;44254;-80
2022/04/13 14:21:26;;;;;;;;;;;16.40;99.90;;;;;;4287843;33;43184;-80
2022/04/13 14:23:53;;;;;;;;;;;16.40;99.90;;;;;;4287063;33;43442;-80
2022/04/13 14:26:20;;;;;;;;;;;16.40;99.90;;;;;;4286642;33;42881;-80